Time;durP1;ratioP1;P1;durP2;ratioP2;P2;SDS_P1;SDS_P2;PMS_P1;PMS_P2;Temp;Humidity;BMP_temperature;BMP_pressure;BME280_temperature;BME280_humidity;BME280_pressure;Samples;Min_cycle;Max_cycle;Signal;HPM_P1;HPM_P2
2023/10/23 00:00:28;;;;;;;;;;;;;;;15.19;63.76;101145.00;4947773;29;20291;-75
2023/10/23 00:02:53;;;;;;;;;;;;;;;15.19;63.50;101146.91;4962696;28;20275;-76
2023/10/23 00:05:18;;;;;;;;;;;;;;;15.17;63.33;101158.06;4950752;29;20069;-76
2023/10/23 00:07:44;;;;;;;;;;;;;;;15.17;63.49;101154.50;4947936;29;19934;-75
2023/10/23 00:10:10;;;;;;;;;;;;;;;15.15;63.60;101152.06;4949693;28;19923;-75
2023/10/23 00:12:35;;;;;;;;;;;;;;;15.14;63.68;101162.13;4946504;29;19940;-75
2023/10/23 00:15:00;;;;;;;;;;;;;;;15.13;63.62;101165.91;4944225;28;19926;-76
2023/10/23 00:17:25;;;;;;;;;;;;;;;15.12;63.78;101166.19;4962903;28;19918;-75
2023/10/23 00:19:51;;;;;;;;;;;;;;;15.11;63.64;101153.66;4950394;28;19922;-78
2023/10/23 00:22:16;;;;;;;;;;;;;;;15.10;63.53;101154.75;4943503;28;19922;-77
2023/10/23 00:24:41;;;;;;;;;;;;;;;15.10;63.65;101152.03;4943133;28;19973;-77
2023/10/23 00:27:06;;;;;;;;;;;;;;;15.08;63.71;101149.56;4944151;29;19933;-78
2023/10/23 00:29:32;;;;;;;;;;;;;;;15.07;63.38;101158.81;4947621;28;20366;-77
2023/10/23 00:31:57;;;;;;;;;;;;;;;15.07;63.39;101160.72;4944105;29;19982;-77
2023/10/23 00:34:22;;;;;;;;;;;;;;;15.05;63.73;101160.16;4943501;29;20374;-77
2023/10/23 00:36:47;;;;;;;;;;;;;;;15.04;63.65;101167.47;4950002;29;19944;-77
2023/10/23 00:39:13;;;;;;;;;;;;;;;15.03;63.64;101171.28;4957806;28;19923;-77
2023/10/23 00:41:39;;;;;;;;;;;;;;;15.03;63.43;101173.19;4949811;28;19946;-76
2023/10/23 00:44:04;;;;;;;;;;;;;;;15.02;63.31;101171.53;4959810;28;19930;-77
2023/10/23 00:46:32;;;;;;;;;;;;;;;15.00;63.64;101171.00;4948814;28;19919;-76
2023/10/23 00:48:58;;;;;;;;;;;;;;;14.99;63.67;101181.03;4946439;29;19923;-76
2023/10/23 00:51:23;;;;;;;;;;;;;;;14.98;63.28;101173.97;4952106;29;19926;-76
2023/10/23 00:53:49;;;;;;;;;;;;;;;14.97;63.30;101176.94;4962610;28;19919;-77
2023/10/23 00:56:14;;;;;;;;;;;;;;;14.96;63.57;101175.31;4949376;29;19981;-77
2023/10/23 00:58:40;;;;;;;;;;;;;;;14.95;63.36;101177.22;4949611;29;20110;-77
2023/10/23 01:01:06;;;;;;;;;;;;;;;14.94;63.51;101183.72;4952518;29;19938;-77
2023/10/23 01:03:31;;;;;;;;;;;;;;;14.93;63.35;101184.81;4951295;29;20288;-78
2023/10/23 01:05:57;;;;;;;;;;;;;;;14.91;63.67;101186.97;4942703;29;20394;-77
2023/10/23 01:08:22;;;;;;;;;;;;;;;14.91;63.53;101197.84;4948390;29;19919;-77
2023/10/23 01:10:48;;;;;;;;;;;;;;;14.89;63.62;101192.69;4949613;28;19922;-77
2023/10/23 01:13:14;;;;;;;;;;;;;;;14.87;63.36;101194.84;4950017;28;19922;-76
2023/10/23 01:15:40;;;;;;;;;;;;;;;14.87;63.44;101191.31;4968616;28;19926;-76
2023/10/23 01:18:05;;;;;;;;;;;;;;;14.86;63.61;101186.94;4951594;28;20334;-76
2023/10/23 01:20:31;;;;;;;;;;;;;;;14.85;63.50;101182.59;4944593;28;19919;-76
2023/10/23 01:22:58;;;;;;;;;;;;;;;14.83;63.37;101182.84;4952807;29;19928;-77
2023/10/23 01:25:23;;;;;;;;;;;;;;;14.83;63.21;101182.03;4952830;29;20282;-76
2023/10/23 01:27:48;;;;;;;;;;;;;;;14.82;63.40;101174.97;4947815;28;19922;-77
2023/10/23 01:30:13;;;;;;;;;;;;;;;14.81;63.35;101173.31;4961795;28;20068;-76
2023/10/23 01:32:39;;;;;;;;;;;;;;;14.80;63.50;101180.66;4949427;29;19973;-76
2023/10/23 01:35:04;;;;;;;;;;;;;;;14.79;63.46;101184.47;4950627;28;19923;-76
2023/10/23 01:37:29;;;;;;;;;;;;;;;14.78;63.52;101180.09;4947781;29;20291;-76
2023/10/23 01:39:55;;;;;;;;;;;;;;;14.77;63.52;101170.31;4961120;28;19930;-76
2023/10/23 01:42:20;;;;;;;;;;;;;;;14.76;63.41;101162.38;4959551;28;20000;-76
2023/10/23 01:44:45;;;;;;;;;;;;;;;14.75;63.26;101166.19;4963232;28;19926;-76
2023/10/23 01:47:10;;;;;;;;;;;;;;;14.73;63.24;101166.44;4945949;29;19982;-76
2023/10/23 01:49:36;;;;;;;;;;;;;;;14.73;63.26;101176.50;4944301;29;20041;-76
2023/10/23 01:52:01;;;;;;;;;;;;;;;14.71;63.41;101163.16;4947659;29;19926;-76
2023/10/23 01:54:26;;;;;;;;;;;;;;;14.70;63.27;101175.94;4959348;28;20360;-76
2023/10/23 01:56:52;;;;;;;;;;;;;;;14.69;63.23;101174.31;4947107;29;20417;-76
2023/10/23 01:59:17;;;;;;;;;;;;;;;14.68;63.26;101175.38;4938966;29;19933;-77
2023/10/23 02:01:42;;;;;;;;;;;;;;;14.68;63.02;101182.72;4946115;29;19930;-77
2023/10/23 02:04:08;;;;;;;;;;;;;;;14.66;63.27;101190.31;4966334;28;19930;-76
2023/10/23 02:06:33;;;;;;;;;;;;;;;14.64;63.14;101190.59;4954862;28;19927;-76
2023/10/23 02:08:59;;;;;;;;;;;;;;;14.63;63.35;101182.69;4946707;29;20013;-76
2023/10/23 02:11:24;;;;;;;;;;;;;;;14.61;63.39;101191.09;4943877;29;19933;-76
2023/10/23 02:13:50;;;;;;;;;;;;;;;14.61;63.41;101193.81;4943190;28;19919;-77
2023/10/23 02:16:15;;;;;;;;;;;;;;;14.59;63.24;101198.69;4952516;28;19930;-76
2023/10/23 02:18:40;;;;;;;;;;;;;;;14.59;63.13;101195.13;4944702;28;19922;-77
2023/10/23 02:21:06;;;;;;;;;;;;;;;14.57;63.18;101200.84;4947425;29;20300;-76
2023/10/23 02:23:32;;;;;;;;;;;;;;;14.57;63.17;101200.03;4954395;28;19914;-77
2023/10/23 02:25:57;;;;;;;;;;;;;;;14.55;63.36;101203.00;4950136;28;20289;-76
2023/10/23 02:28:22;;;;;;;;;;;;;;;14.54;63.04;101193.22;4944200;28;19957;-77
2023/10/23 02:30:48;;;;;;;;;;;;;;;14.53;63.18;101197.00;4946904;29;19923;-76
2023/10/23 02:33:13;;;;;;;;;;;;;;;14.52;63.30;101198.06;4938227;29;20402;-77
2023/10/23 02:35:38;;;;;;;;;;;;;;;14.52;63.24;101203.50;4961744;28;19974;-77
2023/10/23 02:38:03;;;;;;;;;;;;;;;14.51;63.12;101201.84;4949682;29;19937;-76
2023/10/23 02:40:29;;;;;;;;;;;;;;;14.50;63.17;101205.66;4952863;29;19945;-76
2023/10/23 02:42:55;;;;;;;;;;;;;;;14.49;63.17;101204.00;4944101;28;19997;-77
2023/10/23 02:45:20;;;;;;;;;;;;;;;14.48;63.22;101208.59;4957204;28;20554;-76
2023/10/23 02:47:45;;;;;;;;;;;;;;;14.47;63.07;101204.25;4943202;29;20405;-76
2023/10/23 02:50:10;;;;;;;;;;;;;;;14.46;63.22;101210.78;4941925;28;19925;-76
2023/10/23 02:52:36;;;;;;;;;;;;;;;14.45;63.24;101203.69;4965887;28;19983;-76
2023/10/23 02:55:01;;;;;;;;;;;;;;;14.45;62.97;101200.16;4945887;28;19950;-76
2023/10/23 02:57:26;;;;;;;;;;;;;;;14.43;63.20;101205.84;4948375;29;19926;-77
2023/10/23 02:59:52;;;;;;;;;;;;;;;14.43;63.15;101211.28;4951321;28;19965;-76
2023/10/23 03:02:18;;;;;;;;;;;;;;;14.41;63.10;101205.31;4943820;28;19923;-76
2023/10/23 03:04:43;;;;;;;;;;;;;;;14.41;62.95;101193.59;4942369;28;20355;-76
2023/10/23 03:07:09;;;;;;;;;;;;;;;14.41;63.05;101204.47;4964199;28;19922;-76
2023/10/23 03:09:34;;;;;;;;;;;;;;;14.40;62.99;101208.25;4961161;28;19925;-76
2023/10/23 03:12:00;;;;;;;;;;;;;;;14.38;63.12;101210.41;4939114;29;20372;-76
2023/10/23 03:14:25;;;;;;;;;;;;;;;14.38;63.05;101208.50;4948231;29;19932;-77
2023/10/23 03:16:50;;;;;;;;;;;;;;;14.36;63.12;101213.38;4942802;29;20374;-76
2023/10/23 03:19:15;;;;;;;;;;;;;;;14.35;63.15;101209.03;4944556;29;19922;-76
2023/10/23 03:21:41;;;;;;;;;;;;;;;14.34;63.09;101206.56;4962116;28;20366;-76
2023/10/23 03:24:06;;;;;;;;;;;;;;;14.34;62.97;101206.56;4963121;28;20009;-78
2023/10/23 03:26:32;;;;;;;;;;;;;;;14.33;63.04;101202.22;4957912;28;20367;-76
2023/10/23 03:28:57;;;;;;;;;;;;;;;14.32;63.13;101209.56;4947709;28;19918;-76
2023/10/23 03:31:22;;;;;;;;;;;;;;;14.31;63.13;101207.06;4955625;28;19918;-76
2023/10/23 03:33:48;;;;;;;;;;;;;;;14.31;63.06;101204.34;4959494;28;20287;-76
2023/10/23 03:36:13;;;;;;;;;;;;;;;14.28;62.95;101203.78;4943096;29;19933;-77
2023/10/23 03:38:38;;;;;;;;;;;;;;;14.28;63.01;101214.66;4947542;28;19922;-77
2023/10/23 03:41:04;;;;;;;;;;;;;;;14.26;63.05;101207.84;4943326;29;20387;-77
2023/10/23 03:43:29;;;;;;;;;;;;;;;14.26;63.09;101210.56;4957542;28;19919;-76
2023/10/23 03:45:55;;;;;;;;;;;;;;;14.23;63.13;101211.88;4946831;29;19937;-76
2023/10/23 03:48:20;;;;;;;;;;;;;;;14.23;63.04;101205.63;4946788;28;20499;-76
2023/10/23 03:50:45;;;;;;;;;;;;;;;14.22;63.12;101204.81;4947254;29;19937;-76
2023/10/23 03:53:11;;;;;;;;;;;;;;;14.21;63.46;101211.34;4958121;28;20290;-76
2023/10/23 03:55:37;;;;;;;;;;;;;;;14.21;63.00;101197.75;4945039;29;19969;-76
2023/10/23 03:58:02;;;;;;;;;;;;;;;14.20;63.03;101208.88;4944967;28;19915;-76
2023/10/23 04:00:29;;;;;;;;;;;;;;;14.19;63.10;101208.06;4945590;29;19977;-76
2023/10/23 04:02:54;;;;;;;;;;;;;;;14.18;63.20;101209.13;4945309;29;19928;-75
2023/10/23 04:05:19;;;;;;;;;;;;;;;14.17;63.02;101206.69;4947388;28;19919;-76
2023/10/23 04:07:45;;;;;;;;;;;;;;;14.17;63.24;101217.53;4945791;28;20446;-76
2023/10/23 04:10:13;;;;;;;;;;;;;;;14.16;63.11;101226.75;4957213;28;19960;-77
2023/10/23 04:12:38;;;;;;;;;;;;;;;14.14;62.97;101227.03;4946783;28;20266;-76
2023/10/23 04:15:04;;;;;;;;;;;;;;;14.13;62.95;101217.22;4943482;28;19930;-75
2023/10/23 04:17:29;;;;;;;;;;;;;;;14.12;63.02;101215.59;4942811;29;20139;-76
2023/10/23 04:19:54;;;;;;;;;;;;;;;14.11;63.11;101210.41;4952294;29;19923;-75
2023/10/23 04:22:20;;;;;;;;;;;;;;;14.09;63.05;101213.38;4947707;28;20009;-76
2023/10/23 04:24:47;;;;;;;;;;;;;;;14.09;63.12;101221.53;4951462;28;19926;-77
2023/10/23 04:27:12;;;;;;;;;;;;;;;14.07;62.94;101215.53;4951473;29;19926;-78
2023/10/23 04:29:37;;;;;;;;;;;;;;;14.06;62.99;101211.16;4950981;29;19918;-78
2023/10/23 04:32:03;;;;;;;;;;;;;;;14.04;63.17;101216.03;4949103;28;20195;-77
2023/10/23 04:34:28;;;;;;;;;;;;;;;14.03;63.15;101214.38;4947946;29;19922;-78
2023/10/23 04:36:53;;;;;;;;;;;;;;;14.03;62.94;101222.53;4955891;29;20366;-77
2023/10/23 04:39:18;;;;;;;;;;;;;;;14.01;63.16;101225.53;4943506;28;19923;-78
2023/10/23 04:41:43;;;;;;;;;;;;;;;14.00;62.98;101223.88;4951724;29;20013;-77
2023/10/23 04:44:09;;;;;;;;;;;;;;;14.00;63.06;101217.63;4946915;29;19918;-78
2023/10/23 04:46:34;;;;;;;;;;;;;;;14.00;62.86;101228.47;4943611;29;20302;-78
2023/10/23 04:48:59;;;;;;;;;;;;;;;13.98;63.22;101226.00;4952009;28;19918;-77
2023/10/23 04:51:25;;;;;;;;;;;;;;;13.98;63.01;101226.00;4948734;29;19922;-77
2023/10/23 04:53:50;;;;;;;;;;;;;;;13.95;62.90;101223.81;4951913;28;19974;-77
2023/10/23 04:56:15;;;;;;;;;;;;;;;13.95;62.88;101217.56;4945387;28;19982;-77
2023/10/23 04:58:40;;;;;;;;;;;;;;;13.94;62.97;101215.94;4949062;29;19922;-77
2023/10/23 05:01:14;;;;;;;;;;;;;;;13.92;63.10;101216.16;4962807;28;19926;-76
2023/10/23 05:03:39;;;;;;;;;;;;;;;13.93;63.07;101211.56;4952682;28;19919;-76
2023/10/23 05:06:04;;;;;;;;;;;;;;;13.91;63.01;101208.25;4946574;28;19982;-76
2023/10/23 05:08:30;;;;;;;;;;;;;;;13.90;62.94;101212.06;4949387;29;19922;-76
2023/10/23 05:11:04;;;;;;;;;;;;;;;13.90;62.80;101214.78;4954449;28;19968;-75
2023/10/23 05:13:29;;;;;;;;;;;;;;;13.88;63.15;101212.31;4954751;28;20006;-75
2023/10/23 05:16:00;;;;;;;;;;;;;;;13.87;63.05;101216.09;4949705;28;20013;-76
2023/10/23 05:18:26;;;;;;;;;;;;;;;13.85;62.82;101210.09;4943224;28;19922;-75
2023/10/23 05:20:51;;;;;;;;;;;;;;;13.84;63.05;101220.16;4939081;28;20356;-75
2023/10/23 05:23:17;;;;;;;;;;;;;;;13.83;62.88;101209.53;4963115;28;19971;-77
2023/10/23 05:25:46;;;;;;;;;;;;;;;13.81;63.15;101220.66;4944959;29;20013;-76
2023/10/23 05:28:11;;;;;;;;;;;;;;;13.80;62.95;101216.28;4945131;28;19918;-77
2023/10/23 05:30:37;;;;;;;;;;;;;;;13.81;63.05;101217.13;4948746;28;19926;-77
2023/10/23 05:33:03;;;;;;;;;;;;;;;13.78;62.98;101221.19;4948477;29;19926;-76
2023/10/23 05:35:28;;;;;;;;;;;;;;;13.77;63.04;101219.50;4949271;29;19925;-77
2023/10/23 05:37:53;;;;;;;;;;;;;;;13.77;63.14;101216.78;4946575;28;19921;-76
2023/10/23 05:40:19;;;;;;;;;;;;;;;13.75;62.78;101213.50;4951992;29;19949;-78
2023/10/23 05:42:44;;;;;;;;;;;;;;;13.75;63.14;101221.66;4952665;29;19919;-77
2023/10/23 05:45:09;;;;;;;;;;;;;;;13.74;62.87;101216.50;4954419;28;20327;-77
2023/10/23 05:47:35;;;;;;;;;;;;;;;13.73;62.98;101218.38;4944359;29;19978;-76
2023/10/23 05:50:00;;;;;;;;;;;;;;;13.71;63.11;101220.53;4952100;28;20351;-76
2023/10/23 05:52:25;;;;;;;;;;;;;;;13.70;62.87;101218.88;4941274;29;19926;-77
2023/10/23 05:54:50;;;;;;;;;;;;;;;13.69;62.98;101219.97;4961625;28;19929;-76
2023/10/23 05:57:16;;;;;;;;;;;;;;;13.68;62.78;101223.72;4950011;29;19926;-76
2023/10/23 05:59:41;;;;;;;;;;;;;;;13.68;62.82;101221.00;4936198;29;19938;-73
2023/10/23 06:02:06;;;;;;;;;;;;;;;13.65;62.92;101210.66;4937491;28;19925;-73
2023/10/23 06:04:31;;;;;;;;;;;;;;;13.65;63.04;101216.09;4953669;28;19973;-74
2023/10/23 06:06:57;;;;;;;;;;;;;;;13.64;63.09;101211.75;4949594;28;20259;-72
2023/10/23 06:09:22;;;;;;;;;;;;;;;13.63;62.94;101221.78;4948786;28;19958;-77
2023/10/23 06:11:47;;;;;;;;;;;;;;;13.63;63.08;101218.22;4952537;28;19918;-73
2023/10/23 06:14:13;;;;;;;;;;;;;;;13.60;62.74;101216.84;4946837;28;19923;-71
2023/10/23 06:16:38;;;;;;;;;;;;;;;13.55;62.43;101216.78;4947443;28;20330;-72
2023/10/23 06:19:05;;;;;;;;;;;;;;;13.50;62.03;101210.47;4950202;28;19925;-75
2023/10/23 06:21:31;;;;;;;;;;;;;;;13.42;61.96;101212.53;4947929;28;20357;-82
2023/10/23 06:23:56;;;;;;;;;;;;;;;13.37;62.07;101212.47;4953861;28;19961;-79
2023/10/23 06:26:21;;;;;;;;;;;;;;;13.37;62.30;101211.66;4952544;28;20354;-80
2023/10/23 06:28:46;;;;;;;;;;;;;;;13.34;62.29;101204.81;4948774;28;19973;-82
2023/10/23 06:31:12;;;;;;;;;;;;;;;13.34;62.25;101212.97;4946695;28;20001;-79
2023/10/23 06:33:42;;;;;;;;;;;;;;;13.34;62.28;101209.44;4949270;28;19933;-78
2023/10/23 06:36:09;;;;;;;;;;;;;;;13.33;62.46;101215.91;4944202;28;19921;-81
2023/10/23 06:38:34;;;;;;;;;;;;;;;13.33;62.57;101205.06;4954937;28;19970;-80
2023/10/23 06:41:04;;;;;;;;;;;;;;;13.32;62.39;101215.09;4952076;28;19926;-77
2023/10/23 06:43:30;;;;;;;;;;;;;;;13.31;62.64;101210.75;4946046;28;19922;-77
2023/10/23 06:45:55;;;;;;;;;;;;;;;13.32;62.45;101201.53;4960118;28;19922;-78
2023/10/23 06:48:20;;;;;;;;;;;;;;;13.30;62.51;101203.69;4960844;28;20385;-77
2023/10/23 06:50:49;;;;;;;;;;;;;;;13.30;62.44;101205.56;4956735;28;19922;-80
2023/10/23 06:53:14;;;;;;;;;;;;;;;13.29;62.52;101196.63;4953440;28;20374;-81
2023/10/23 06:55:49;;;;;;;;;;;;;;;13.30;62.58;101200.97;4953318;28;19961;-79
2023/10/23 06:58:14;;;;;;;;;;;;;;;13.30;62.66;101200.16;4944523;28;20398;-79
2023/10/23 07:00:40;;;;;;;;;;;;;;;13.29;62.80;101199.34;4948376;28;19926;-81
2023/10/23 07:03:05;;;;;;;;;;;;;;;13.28;62.76;101203.13;4950263;28;20334;-80
2023/10/23 07:05:31;;;;;;;;;;;;;;;13.28;62.77;101197.69;4945977;28;19918;-81
2023/10/23 07:07:56;;;;;;;;;;;;;;;13.29;62.83;101199.34;4946981;28;19927;-79
2023/10/23 07:10:21;;;;;;;;;;;;;;;13.28;62.61;101202.28;4948344;28;20438;-82
2023/10/23 07:12:46;;;;;;;;;;;;;;;13.28;62.44;101200.41;4960794;28;19922;-79
2023/10/23 07:15:12;;;;;;;;;;;;;;;13.26;62.76;101194.38;4944863;28;19922;-78
2023/10/23 07:17:37;;;;;;;;;;;;;;;13.23;62.27;101192.16;4949304;28;20399;-75
2023/10/23 07:20:06;;;;;;;;;;;;;;;13.16;62.24;101192.34;4946861;28;20435;-74
2023/10/23 07:22:32;;;;;;;;;;;;;;;13.12;62.35;101195.78;4946910;28;19941;-77
2023/10/23 07:24:57;;;;;;;;;;;;;;;13.11;62.56;101208.53;4944971;28;19914;-78
2023/10/23 07:27:22;;;;;;;;;;;;;;;13.11;62.28;101207.72;4928358;28;19922;-79
2023/10/23 07:29:48;;;;;;;;;;;;;;;13.09;62.45;101202.53;4948772;28;19922;-79
2023/10/23 07:32:13;;;;;;;;;;;;;;;13.09;62.38;101212.56;4946002;28;19922;-80
2023/10/23 07:34:38;;;;;;;;;;;;;;;13.09;62.64;101204.44;4947198;28;20061;-80
2023/10/23 07:37:03;;;;;;;;;;;;;;;13.09;62.50;101207.13;4960898;28;19921;-84
2023/10/23 07:39:29;;;;;;;;;;;;;;;13.09;62.50;101207.13;4952818;28;19932;-80
2023/10/23 07:41:54;;;;;;;;;;;;;;;13.10;62.44;101203.34;4963195;28;19918;-79
2023/10/23 07:44:20;;;;;;;;;;;;;;;13.10;62.52;101208.78;4947338;28;20375;-79
2023/10/23 07:46:46;;;;;;;;;;;;;;;13.10;62.59;101212.31;4931783;28;19965;-79
2023/10/23 07:49:11;;;;;;;;;;;;;;;13.10;62.65;101216.91;4946689;28;20005;-78
2023/10/23 07:51:36;;;;;;;;;;;;;;;13.09;62.84;101223.41;4958705;28;19929;-78
2023/10/23 07:54:03;;;;;;;;;;;;;;;13.09;62.57;101221.50;4946919;28;19930;-80
2023/10/23 07:56:28;;;;;;;;;;;;;;;13.10;62.61;101219.63;4946741;28;19929;-79
2023/10/23 07:58:53;;;;;;;;;;;;;;;13.09;62.69;101228.84;4945296;28;19934;-80
2023/10/23 08:01:18;;;;;;;;;;;;;;;13.09;62.68;101223.41;4945839;28;19919;-79
2023/10/23 08:03:44;;;;;;;;;;;;;;;13.09;62.57;101220.69;4946107;28;20017;-79
2023/10/23 08:06:10;;;;;;;;;;;;;;;13.09;62.87;101220.69;4948028;28;19922;-78
2023/10/23 08:08:36;;;;;;;;;;;;;;;13.09;62.78;101218.00;4957003;28;20020;-78
2023/10/23 08:11:03;;;;;;;;;;;;;;;13.08;62.94;101210.91;4947054;28;20008;-79
2023/10/23 08:13:28;;;;;;;;;;;;;;;13.08;62.92;101205.47;4953204;28;19918;-79
2023/10/23 08:15:53;;;;;;;;;;;;;;;13.07;62.80;101207.38;4950019;28;20050;-80
2023/10/23 08:18:19;;;;;;;;;;;;;;;13.08;62.89;101205.47;4952448;28;19918;-82
2023/10/23 08:20:44;;;;;;;;;;;;;;;13.08;62.86;101205.47;4948484;28;20382;-79
2023/10/23 08:23:09;;;;;;;;;;;;;;;13.08;62.94;101205.47;4942017;28;20271;-78
2023/10/23 08:25:34;;;;;;;;;;;;;;;13.08;62.91;101211.75;4947304;28;19927;-84
2023/10/23 08:28:00;;;;;;;;;;;;;;;13.09;63.00;101212.56;4943549;28;19941;-80
2023/10/23 08:30:25;;;;;;;;;;;;;;;13.09;62.57;101215.28;4957856;28;19922;-84
2023/10/23 08:32:50;;;;;;;;;;;;;;;13.08;62.88;101211.75;4946280;28;19922;-82
2023/10/23 08:35:16;;;;;;;;;;;;;;;13.09;62.93;101215.28;4945269;28;19933;-80
2023/10/23 08:37:42;;;;;;;;;;;;;;;13.08;62.98;101225.31;4946132;28;19926;-80
2023/10/23 08:40:07;;;;;;;;;;;;;;;13.08;62.98;101221.75;4954040;28;19954;-79
2023/10/23 08:42:33;;;;;;;;;;;;;;;13.09;63.07;101231.53;4954307;28;19922;-79
2023/10/23 08:44:59;;;;;;;;;;;;;;;13.09;63.06;101226.94;4962354;28;19919;-79
2023/10/23 08:47:24;;;;;;;;;;;;;;;13.08;62.96;101219.88;4945355;28;19930;-81
2023/10/23 08:49:51;;;;;;;;;;;;;;;13.09;62.90;101218.81;4928101;28;20014;-81
2023/10/23 08:52:18;;;;;;;;;;;;;;;13.09;62.95;101218.00;4950129;28;20088;-79
2023/10/23 08:54:44;;;;;;;;;;;;;;;13.10;62.85;101219.63;4958292;28;19922;-82
2023/10/23 08:57:09;;;;;;;;;;;;;;;13.10;62.99;101209.63;4956865;28;21904;-81
2023/10/23 08:59:35;;;;;;;;;;;;;;;13.11;62.74;101205.00;4954945;28;20665;-83
2023/10/23 09:02:01;;;;;;;;;;;;;;;13.11;62.68;101207.72;4930093;28;19945;-82
2023/10/23 09:04:26;;;;;;;;;;;;;;;13.12;62.89;101209.34;4946050;28;20667;-81
2023/10/23 09:06:52;;;;;;;;;;;;;;;13.12;63.03;101201.22;4967640;28;20413;-83
2023/10/23 09:09:19;;;;;;;;;;;;;;;13.11;62.99;101196.88;4951182;28;20371;-86
2023/10/23 09:11:45;;;;;;;;;;;;;;;13.11;62.82;101192.25;4950874;28;19946;-80
2023/10/23 09:14:11;;;;;;;;;;;;;;;13.12;63.06;101199.31;4946102;28;20446;-79
2023/10/23 09:16:37;;;;;;;;;;;;;;;13.11;62.86;101196.88;4948268;28;20021;-83
2023/10/23 09:19:02;;;;;;;;;;;;;;;13.11;62.89;101191.44;4933806;28;20009;-81
2023/10/23 09:21:29;;;;;;;;;;;;;;;13.11;62.84;101186.84;4948069;28;19918;-82
2023/10/23 09:23:55;;;;;;;;;;;;;;;13.13;63.04;101178.47;4948493;28;19918;-82
2023/10/23 09:26:21;;;;;;;;;;;;;;;13.13;62.88;101182.00;4951081;28;19914;-83
2023/10/23 09:28:50;;;;;;;;;;;;;;;13.14;62.59;101188.22;4948840;28;19923;-82
2023/10/23 09:31:18;;;;;;;;;;;;;;;13.13;62.75;101171.13;4955239;28;20016;-82
2023/10/23 09:33:44;;;;;;;;;;;;;;;13.14;62.74;101178.19;4952853;28;19922;-82
2023/10/23 09:36:10;;;;;;;;;;;;;;;13.14;63.12;101172.78;4949963;28;19946;-81
2023/10/23 09:38:36;;;;;;;;;;;;;;;13.14;62.78;101166.53;4949556;28;19969;-80
2023/10/23 09:41:02;;;;;;;;;;;;;;;13.14;62.88;101167.34;4963414;28;19958;-78
2023/10/23 09:43:27;;;;;;;;;;;;;;;13.14;62.90;101166.53;4972865;28;19988;-81
2023/10/23 09:45:53;;;;;;;;;;;;;;;13.14;63.00;101171.94;4968208;28;19923;-81
2023/10/23 09:48:23;;;;;;;;;;;;;;;13.15;63.03;101173.59;4932338;28;19961;-81
2023/10/23 09:50:48;;;;;;;;;;;;;;;13.15;63.14;101169.00;4954769;28;20328;-80
2023/10/23 09:53:15;;;;;;;;;;;;;;;13.16;62.94;101167.91;4953095;28;20369;-80
2023/10/23 09:55:42;;;;;;;;;;;;;;;13.17;62.98;101161.41;4951691;28;19918;-78
2023/10/23 09:58:11;;;;;;;;;;;;;;;13.19;62.86;101161.19;4946000;28;20682;-79
2023/10/23 10:00:38;;;;;;;;;;;;;;;13.17;63.01;101161.41;4946524;28;19926;-82
2023/10/23 10:03:05;;;;;;;;;;;;;;;13.18;63.14;101164.97;4960277;28;19922;-79
2023/10/23 10:05:30;;;;;;;;;;;;;;;13.19;63.27;101166.59;4948132;28;20362;-81
2023/10/23 10:07:56;;;;;;;;;;;;;;;13.21;63.33;101164.47;4957030;28;20009;-80
2023/10/23 10:10:22;;;;;;;;;;;;;;;13.21;63.38;101157.16;4962697;28;19918;-78
2023/10/23 10:12:48;;;;;;;;;;;;;;;13.24;63.30;101155.00;4950139;28;19922;-78
2023/10/23 10:15:14;;;;;;;;;;;;;;;13.25;63.37;101160.16;4958252;28;20402;-84
2023/10/23 10:17:42;;;;;;;;;;;;;;;13.26;63.31;101161.00;4950161;28;19918;-81
2023/10/23 10:20:08;;;;;;;;;;;;;;;13.27;63.36;101152.63;4966537;28;19972;-80
2023/10/23 10:22:35;;;;;;;;;;;;;;;13.29;63.13;101152.41;4954268;28;19925;-81
2023/10/23 10:25:03;;;;;;;;;;;;;;;13.31;63.32;101144.84;4961756;28;19972;-78
2023/10/23 10:27:29;;;;;;;;;;;;;;;13.32;63.47;101147.28;4957837;28;19918;-78
2023/10/23 10:29:54;;;;;;;;;;;;;;;13.32;63.85;101146.47;4946997;28;19929;-78
2023/10/23 10:32:22;;;;;;;;;;;;;;;13.34;63.68;101142.41;4946629;28;20374;-77
2023/10/23 10:34:50;;;;;;;;;;;;;;;13.34;63.96;101137.00;4946158;28;20297;-77
2023/10/23 10:37:16;;;;;;;;;;;;;;;13.36;63.86;101136.75;4949881;28;19921;-79
2023/10/23 10:39:53;;;;;;;;;;;;;;;13.38;63.92;101129.16;4946229;28;19984;-78
2023/10/23 10:42:19;;;;;;;;;;;;;;;13.39;64.17;101119.97;4946191;28;20361;-76
2023/10/23 10:44:52;;;;;;;;;;;;;;;13.41;64.05;101120.53;4958752;28;20375;-82
2023/10/23 10:47:18;;;;;;;;;;;;;;;13.42;64.44;101111.31;4948557;28;20278;-79
2023/10/23 10:49:46;;;;;;;;;;;;;;;13.45;64.42;101110.00;4946242;28;19922;-80
2023/10/23 10:52:26;;;;;;;;;;;;;;;13.47;64.36;101111.38;4950011;28;19929;-79
2023/10/23 10:54:53;;;;;;;;;;;;;;;13.49;64.44;101108.41;4962744;28;19918;-81
2023/10/23 10:57:19;;;;;;;;;;;;;;;13.51;64.50;101112.53;4950555;28;19945;-81
2023/10/23 10:59:44;;;;;;;;;;;;;;;13.55;64.58;101093.81;4930761;28;20383;-79
2023/10/23 11:02:09;;;;;;;;;;;;;;;13.58;64.47;101088.72;4960482;28;19927;-82
2023/10/23 11:04:35;;;;;;;;;;;;;;;13.59;64.77;101084.13;4950870;28;19934;-83
2023/10/23 11:07:00;;;;;;;;;;;;;;;13.62;64.83;101075.44;4945928;28;19926;-82
2023/10/23 11:09:25;;;;;;;;;;;;;;;13.63;64.97;101067.06;4949791;28;20271;-84
2023/10/23 11:11:50;;;;;;;;;;;;;;;13.66;64.90;101071.16;4963594;28;20378;-81
2023/10/23 11:14:16;;;;;;;;;;;;;;;13.69;64.94;101067.94;4932223;28;20058;-81
2023/10/23 11:16:41;;;;;;;;;;;;;;;13.71;64.98;101073.94;4944510;28;19922;-80
2023/10/23 11:19:06;;;;;;;;;;;;;;;13.73;65.02;101068.22;4936900;28;20232;-80
2023/10/23 11:21:32;;;;;;;;;;;;;;;13.75;65.19;101058.75;4932052;28;19926;-81
2023/10/23 11:23:58;;;;;;;;;;;;;;;13.76;65.36;101063.13;4938520;28;19975;-81
2023/10/23 11:26:23;;;;;;;;;;;;;;;13.78;65.18;101060.97;4951493;28;19919;-82
2023/10/23 11:28:49;;;;;;;;;;;;;;;13.80;65.09;101042.50;4960999;28;19953;-82
2023/10/23 11:31:14;;;;;;;;;;;;;;;13.83;65.25;101036.59;4931461;28;19953;-81
2023/10/23 11:33:39;;;;;;;;;;;;;;;13.85;65.29;101025.47;4933935;28;19925;-82
2023/10/23 11:36:05;;;;;;;;;;;;;;;13.88;65.44;101015.97;4946666;28;20276;-79
2023/10/23 11:38:36;;;;;;;;;;;;;;;13.89;65.51;101018.44;4950365;28;19926;-82
2023/10/23 11:41:01;;;;;;;;;;;;;;;13.92;65.86;101019.81;4952988;28;19918;-81
2023/10/23 11:43:27;;;;;;;;;;;;;;;13.95;65.84;101013.88;4934793;28;19922;-83
2023/10/23 11:45:52;;;;;;;;;;;;;;;13.97;65.72;101011.72;4945616;28;19922;-80
2023/10/23 11:48:18;;;;;;;;;;;;;;;13.99;66.14;101004.13;4924750;28;19929;-82
2023/10/23 11:50:44;;;;;;;;;;;;;;;14.02;65.94;101003.63;4945217;28;19922;-81
2023/10/23 11:53:09;;;;;;;;;;;;;;;14.04;65.96;101001.47;4962434;28;20017;-81
2023/10/23 11:55:36;;;;;;;;;;;;;;;14.03;66.28;101000.63;4933661;28;20036;-81
2023/10/23 11:58:03;;;;;;;;;;;;;;;14.05;66.11;100997.66;4954033;28;19926;-82
2023/10/23 12:00:30;;;;;;;;;;;;;;;14.08;66.48;100988.97;4949129;28;20492;-86
2023/10/23 12:02:55;;;;;;;;;;;;;;;14.10;66.68;100994.16;4951436;28;19952;-83
2023/10/23 12:05:21;;;;;;;;;;;;;;;14.12;66.71;100984.69;4928265;28;20418;-82
2023/10/23 12:07:49;;;;;;;;;;;;;;;14.15;66.48;100983.34;4949016;28;19931;-85
2023/10/23 12:10:16;;;;;;;;;;;;;;;14.17;66.52;100986.63;4947346;28;19922;-85
2023/10/23 12:12:42;;;;;;;;;;;;;;;14.18;66.59;100978.19;4958435;28;20395;-87
2023/10/23 12:15:09;;;;;;;;;;;;;;;14.21;66.75;100974.13;4947074;28;19918;-82
2023/10/23 12:17:34;;;;;;;;;;;;;;;14.24;66.90;100973.63;4956147;28;19918;-81
2023/10/23 12:20:00;;;;;;;;;;;;;;;14.25;66.90;100969.81;4928656;28;19929;-81
2023/10/23 12:22:25;;;;;;;;;;;;;;;14.26;67.00;100971.44;4951422;28;20543;-82
2023/10/23 12:24:50;;;;;;;;;;;;;;;14.28;66.80;100958.44;4959580;28;19981;-82
2023/10/23 12:27:15;;;;;;;;;;;;;;;14.31;66.78;100957.09;4949064;28;19919;-85